sensor_id;sensor_type;location;lat;lon;timestamp;pressure;altitude;pressure_sealevel;temperature;humidity
62928;BME280;51070;52.236;-0.892;2024-03-02T00:00:11;98194.80;;;3.36;100.00
62928;BME280;51070;52.236;-0.892;2024-03-02T00:02:45;98196.13;;;3.33;100.00
62928;BME280;51070;52.236;-0.892;2024-03-02T00:05:12;98196.89;;;3.29;100.00
62928;BME280;51070;52.236;-0.892;2024-03-02T00:07:41;98190.84;;;3.25;100.00
62928;BME280;51070;52.236;-0.892;2024-03-02T00:10:09;98190.46;;;3.23;100.00
62928;BME280;51070;52.236;-0.892;2024-03-02T00:12:40;98185.11;;;3.21;100.00
62928;BME280;51070;52.236;-0.892;2024-03-02T00:18:04;98181.60;;;3.24;100.00
62928;BME280;51070;52.236;-0.892;2024-03-02T00:20:30;98177.36;;;3.26;100.00
62928;BME280;51070;52.236;-0.892;2024-03-02T00:23:19;98175.84;;;3.26;100.00
62928;BME280;51070;52.236;-0.892;2024-03-02T00:25:55;98178.08;;;3.27;100.00
62928;BME280;51070;52.236;-0.892;2024-03-02T00:33:31;98188.16;;;3.27;100.00
62928;BME280;51070;52.236;-0.892;2024-03-02T00:35:57;98183.91;;;3.28;100.00
62928;BME280;51070;52.236;-0.892;2024-03-02T00:38:23;98179.83;;;3.29;100.00
62928;BME280;51070;52.236;-0.892;2024-03-02T00:40:49;98179.30;;;3.28;100.00
62928;BME280;51070;52.236;-0.892;2024-03-02T00:45:49;98189.45;;;3.24;100.00
62928;BME280;51070;52.236;-0.892;2024-03-02T00:48:16;98189.60;;;3.23;100.00
62928;BME280;51070;52.236;-0.892;2024-03-02T00:50:42;98188.03;;;3.21;100.00
62928;BME280;51070;52.236;-0.892;2024-03-02T00:53:10;98176.63;;;3.23;100.00
62928;BME280;51070;52.236;-0.892;2024-03-02T00:55:37;98166.06;;;3.24;100.00
62928;BME280;51070;52.236;-0.892;2024-03-02T00:58:03;98161.48;;;3.26;100.00
62928;BME280;51070;52.236;-0.892;2024-03-02T01:00:29;98168.31;;;3.26;100.00
62928;BME280;51070;52.236;-0.892;2024-03-02T01:02:54;98169.99;;;3.24;100.00
62928;BME280;51070;52.236;-0.892;2024-03-02T01:05:20;98173.75;;;3.24;100.00
62928;BME280;51070;52.236;-0.892;2024-03-02T01:07:45;98182.98;;;3.25;100.00
62928;BME280;51070;52.236;-0.892;2024-03-02T01:10:11;98178.75;;;3.27;100.00
62928;BME280;51070;52.236;-0.892;2024-03-02T01:12:36;98175.55;;;3.29;100.00
62928;BME280;51070;52.236;-0.892;2024-03-02T01:15:02;98179.55;;;3.32;100.00
62928;BME280;51070;52.236;-0.892;2024-03-02T01:17:31;98182.67;;;3.36;100.00
62928;BME280;51070;52.236;-0.892;2024-03-02T01:19:56;98188.20;;;3.38;100.00
62928;BME280;51070;52.236;-0.892;2024-03-02T01:22:23;98195.92;;;3.40;100.00
62928;BME280;51070;52.236;-0.892;2024-03-02T01:24:50;98194.20;;;3.38;100.00
62928;BME280;51070;52.236;-0.892;2024-03-02T01:27:16;98194.52;;;3.38;100.00
62928;BME280;51070;52.236;-0.892;2024-03-02T01:29:41;98195.14;;;3.35;100.00
62928;BME280;51070;52.236;-0.892;2024-03-02T01:32:07;98192.35;;;3.32;100.00
62928;BME280;51070;52.236;-0.892;2024-03-02T01:34:32;98193.50;;;3.30;100.00
62928;BME280;51070;52.236;-0.892;2024-03-02T01:36:57;98191.27;;;3.30;100.00
62928;BME280;51070;52.236;-0.892;2024-03-02T01:39:23;98190.08;;;3.30;100.00
62928;BME280;51070;52.236;-0.892;2024-03-02T01:41:48;98185.73;;;3.34;100.00
62928;BME280;51070;52.236;-0.892;2024-03-02T01:44:13;98181.83;;;3.35;100.00
62928;BME280;51070;52.236;-0.892;2024-03-02T01:46:39;98176.39;;;3.36;100.00
62928;BME280;51070;52.236;-0.892;2024-03-02T01:49:06;98174.77;;;3.40;100.00
62928;BME280;51070;52.236;-0.892;2024-03-02T01:51:31;98174.15;;;3.45;100.00
62928;BME280;51070;52.236;-0.892;2024-03-02T01:53:57;98174.55;;;3.47;100.00
62928;BME280;51070;52.236;-0.892;2024-03-02T01:56:22;98166.91;;;3.50;100.00
62928;BME280;51070;52.236;-0.892;2024-03-02T01:58:49;98164.20;;;3.50;100.00
62928;BME280;51070;52.236;-0.892;2024-03-02T02:01:15;98159.76;;;3.50;100.00
62928;BME280;51070;52.236;-0.892;2024-03-02T02:03:43;98155.88;;;3.53;100.00
62928;BME280;51070;52.236;-0.892;2024-03-02T02:06:09;98150.85;;;3.58;100.00
62928;BME280;51070;52.236;-0.892;2024-03-02T02:08:37;98150.23;;;3.60;100.00
62928;BME280;51070;52.236;-0.892;2024-03-02T02:11:03;98147.17;;;3.62;100.00
62928;BME280;51070;52.236;-0.892;2024-03-02T02:13:28;98144.87;;;3.67;100.00
62928;BME280;51070;52.236;-0.892;2024-03-02T02:15:54;98141.70;;;3.70;100.00
62928;BME280;51070;52.236;-0.892;2024-03-02T02:18:19;98137.63;;;3.73;100.00
62928;BME280;51070;52.236;-0.892;2024-03-02T02:20:45;98139.86;;;3.73;100.00
62928;BME280;51070;52.236;-0.892;2024-03-02T02:23:11;98139.30;;;3.70;100.00
62928;BME280;51070;52.236;-0.892;2024-03-02T02:25:38;98139.92;;;3.67;100.00
62928;BME280;51070;52.236;-0.892;2024-03-02T02:28:04;98139.71;;;3.65;100.00
62928;BME280;51070;52.236;-0.892;2024-03-02T02:30:31;98134.86;;;3.62;100.00
62928;BME280;51070;52.236;-0.892;2024-03-02T02:32:57;98136.54;;;3.59;100.00
62928;BME280;51070;52.236;-0.892;2024-03-02T02:35:23;98128.63;;;3.56;100.00
62928;BME280;51070;52.236;-0.892;2024-03-02T02:37:53;98128.16;;;3.50;100.00
62928;BME280;51070;52.236;-0.892;2024-03-02T02:40:19;98125.84;;;3.45;100.00
62928;BME280;51070;52.236;-0.892;2024-03-02T02:42:44;98123.61;;;3.44;100.00
62928;BME280;51070;52.236;-0.892;2024-03-02T02:45:10;98120.86;;;3.43;100.00
62928;BME280;51070;52.236;-0.892;2024-03-02T02:47:38;98123.55;;;3.41;100.00
62928;BME280;51070;52.236;-0.892;2024-03-02T02:50:06;98119.13;;;3.42;100.00
62928;BME280;51070;52.236;-0.892;2024-03-02T02:52:36;98112.62;;;3.42;100.00
62928;BME280;51070;52.236;-0.892;2024-03-02T02:55:08;98113.12;;;3.40;100.00
62928;BME280;51070;52.236;-0.892;2024-03-02T02:57:35;98109.33;;;3.38;100.00
62928;BME280;51070;52.236;-0.892;2024-03-02T03:00:07;98109.27;;;3.35;100.00
62928;BME280;51070;52.236;-0.892;2024-03-02T03:02:39;98115.55;;;3.33;100.00
62928;BME280;51070;52.236;-0.892;2024-03-02T03:05:06;98113.31;;;3.32;100.00
62928;BME280;51070;52.236;-0.892;2024-03-02T03:07:32;98112.55;;;3.28;100.00
62928;BME280;51070;52.236;-0.892;2024-03-02T03:09:59;98109.41;;;3.25;100.00
62928;BME280;51070;52.236;-0.892;2024-03-02T03:12:24;98109.58;;;3.23;100.00
62928;BME280;51070;52.236;-0.892;2024-03-02T03:14:49;98108.21;;;3.25;100.00
62928;BME280;51070;52.236;-0.892;2024-03-02T03:17:15;98109.83;;;3.28;100.00
62928;BME280;51070;52.236;-0.892;2024-03-02T03:19:40;98108.65;;;3.29;100.00
62928;BME280;51070;52.236;-0.892;2024-03-02T03:22:06;98106.92;;;3.28;100.00
62928;BME280;51070;52.236;-0.892;2024-03-02T03:24:31;98106.95;;;3.30;100.00
62928;BME280;51070;52.236;-0.892;2024-03-02T03:26:58;98100.02;;;3.33;100.00
62928;BME280;51070;52.236;-0.892;2024-03-02T03:29:23;98099.03;;;3.35;100.00
62928;BME280;51070;52.236;-0.892;2024-03-02T03:31:48;98097.68;;;3.36;100.00
62928;BME280;51070;52.236;-0.892;2024-03-02T03:34:14;98094.52;;;3.40;100.00
62928;BME280;51070;52.236;-0.892;2024-03-02T03:36:41;98090.10;;;3.42;100.00
62928;BME280;51070;52.236;-0.892;2024-03-02T03:39:07;98083.61;;;3.42;100.00
62928;BME280;51070;52.236;-0.892;2024-03-02T03:41:32;98074.20;;;3.41;100.00
62928;BME280;51070;52.236;-0.892;2024-03-02T03:43:57;98074.02;;;3.39;100.00
62928;BME280;51070;52.236;-0.892;2024-03-02T03:46:23;98075.03;;;3.38;100.00
62928;BME280;51070;52.236;-0.892;2024-03-02T03:48:48;98076.75;;;3.39;100.00
62928;BME280;51070;52.236;-0.892;2024-03-02T03:51:14;98078.13;;;3.40;100.00
62928;BME280;51070;52.236;-0.892;2024-03-02T03:53:39;98077.41;;;3.38;100.00
62928;BME280;51070;52.236;-0.892;2024-03-02T03:56:05;98079.09;;;3.37;100.00
62928;BME280;51070;52.236;-0.892;2024-03-02T03:58:31;98079.05;;;3.35;100.00
62928;BME280;51070;52.236;-0.892;2024-03-02T04:00:56;98077.17;;;3.35;100.00
62928;BME280;51070;52.236;-0.892;2024-03-02T04:03:21;98080.94;;;3.34;100.00
62928;BME280;51070;52.236;-0.892;2024-03-02T04:05:47;98079.73;;;3.35;100.00
62928;BME280;51070;52.236;-0.892;2024-03-02T04:08:12;98081.45;;;3.35;100.00
62928;BME280;51070;52.236;-0.892;2024-03-02T04:10:38;98079.04;;;3.35;100.00
62928;BME280;51070;52.236;-0.892;2024-03-02T04:13:03;98076.34;;;3.36;100.00
62928;BME280;51070;52.236;-0.892;2024-03-02T04:15:29;98075.86;;;3.37;100.00
62928;BME280;51070;52.236;-0.892;2024-03-02T04:17:54;98073.15;;;3.38;100.00
62928;BME280;51070;52.236;-0.892;2024-03-02T04:20:20;98072.83;;;3.39;100.00
62928;BME280;51070;52.236;-0.892;2024-03-02T04:22:46;98072.02;;;3.43;100.00
62928;BME280;51070;52.236;-0.892;2024-03-02T04:25:11;98067.13;;;3.46;100.00
62928;BME280;51070;52.236;-0.892;2024-03-02T04:27:37;98066.13;;;3.47;100.00
62928;BME280;51070;52.236;-0.892;2024-03-02T04:30:04;98061.19;;;3.48;100.00
62928;BME280;51070;52.236;-0.892;2024-03-02T04:32:30;98065.52;;;3.52;100.00
62928;BME280;51070;52.236;-0.892;2024-03-02T04:34:56;98061.98;;;3.54;100.00
62928;BME280;51070;52.236;-0.892;2024-03-02T04:37:22;98059.98;;;3.56;100.00
62928;BME280;51070;52.236;-0.892;2024-03-02T04:39:47;98063.42;;;3.58;100.00
62928;BME280;51070;52.236;-0.892;2024-03-02T04:42:13;98061.06;;;3.60;100.00
62928;BME280;51070;52.236;-0.892;2024-03-02T04:44:38;98063.54;;;3.65;100.00
62928;BME280;51070;52.236;-0.892;2024-03-02T04:47:04;98061.52;;;3.66;100.00
62928;BME280;51070;52.236;-0.892;2024-03-02T04:49:30;98060.00;;;3.68;100.00
62928;BME280;51070;52.236;-0.892;2024-03-02T04:51:56;98060.73;;;3.70;100.00
62928;BME280;51070;52.236;-0.892;2024-03-02T04:54:22;98060.63;;;3.75;100.00
62928;BME280;51070;52.236;-0.892;2024-03-02T04:56:48;98058.45;;;3.77;100.00
62928;BME280;51070;52.236;-0.892;2024-03-02T04:59:17;98058.79;;;3.76;100.00
62928;BME280;51070;52.236;-0.892;2024-03-02T05:01:43;98058.10;;;3.76;100.00
62928;BME280;51070;52.236;-0.892;2024-03-02T05:04:09;98052.63;;;3.76;100.00
62928;BME280;51070;52.236;-0.892;2024-03-02T05:06:40;98056.53;;;3.75;100.00
62928;BME280;51070;52.236;-0.892;2024-03-02T05:09:06;98055.98;;;3.72;100.00
62928;BME280;51070;52.236;-0.892;2024-03-02T05:11:32;98059.52;;;3.70;100.00
62928;BME280;51070;52.236;-0.892;2024-03-02T05:14:06;98053.00;;;3.68;100.00
62928;BME280;51070;52.236;-0.892;2024-03-02T05:16:35;98049.89;;;3.65;100.00
62928;BME280;51070;52.236;-0.892;2024-03-02T05:19:02;98053.58;;;3.62;100.00
62928;BME280;51070;52.236;-0.892;2024-03-02T05:21:27;98050.77;;;3.58;100.00
62928;BME280;51070;52.236;-0.892;2024-03-02T05:23:52;98050.04;;;3.54;100.00
62928;BME280;51070;52.236;-0.892;2024-03-02T05:26:18;98046.73;;;3.51;100.00
62928;BME280;51070;52.236;-0.892;2024-03-02T05:28:43;98046.34;;;3.48;100.00
62928;BME280;51070;52.236;-0.892;2024-03-02T05:31:10;98046.30;;;3.46;100.00
62928;BME280;51070;52.236;-0.892;2024-03-02T05:33:40;98046.44;;;3.43;100.00
62928;BME280;51070;52.236;-0.892;2024-03-02T05:36:06;98046.44;;;3.44;100.00
62928;BME280;51070;52.236;-0.892;2024-03-02T05:38:34;98044.17;;;3.42;100.00
62928;BME280;51070;52.236;-0.892;2024-03-02T05:41:00;98035.51;;;3.44;100.00
62928;BME280;51070;52.236;-0.892;2024-03-02T05:43:26;98028.87;;;3.45;100.00
62928;BME280;51070;52.236;-0.892;2024-03-02T05:45:51;98030.85;;;3.40;100.00
62928;BME280;51070;52.236;-0.892;2024-03-02T05:48:16;98033.69;;;3.37;100.00
62928;BME280;51070;52.236;-0.892;2024-03-02T05:50:42;98030.74;;;3.35;100.00
62928;BME280;51070;52.236;-0.892;2024-03-02T05:53:07;98029.56;;;3.36;100.00
62928;BME280;51070;52.236;-0.892;2024-03-02T05:55:33;98023.44;;;3.37;100.00
62928;BME280;51070;52.236;-0.892;2024-03-02T05:57:58;98020.70;;;3.36;100.00
62928;BME280;51070;52.236;-0.892;2024-03-02T06:00:24;98020.67;;;3.36;100.00
62928;BME280;51070;52.236;-0.892;2024-03-02T06:02:49;98018.30;;;3.36;100.00
62928;BME280;51070;52.236;-0.892;2024-03-02T06:05:15;98014.88;;;3.36;100.00
62928;BME280;51070;52.236;-0.892;2024-03-02T06:07:43;98007.52;;;3.35;100.00
62928;BME280;51070;52.236;-0.892;2024-03-02T06:10:08;98008.55;;;3.34;100.00
62928;BME280;51070;52.236;-0.892;2024-03-02T06:12:34;98004.61;;;3.33;100.00
62928;BME280;51070;52.236;-0.892;2024-03-02T06:15:00;98002.58;;;3.34;100.00
62928;BME280;51070;52.236;-0.892;2024-03-02T06:17:25;98000.55;;;3.36;100.00
62928;BME280;51070;52.236;-0.892;2024-03-02T06:19:51;97999.70;;;3.37;100.00
62928;BME280;51070;52.236;-0.892;2024-03-02T06:22:16;97991.19;;;3.37;100.00
62928;BME280;51070;52.236;-0.892;2024-03-02T06:24:41;97990.03;;;3.40;100.00
62928;BME280;51070;52.236;-0.892;2024-03-02T06:27:07;97984.77;;;3.42;100.00
62928;BME280;51070;52.236;-0.892;2024-03-02T06:29:33;97980.86;;;3.43;100.00
62928;BME280;51070;52.236;-0.892;2024-03-02T06:31:59;97977.98;;;3.44;100.00
62928;BME280;51070;52.236;-0.892;2024-03-02T06:34:25;97976.82;;;3.47;100.00
62928;BME280;51070;52.236;-0.892;2024-03-02T06:36:51;97975.17;;;3.50;100.00
62928;BME280;51070;52.236;-0.892;2024-03-02T06:39:16;97976.60;;;3.54;100.00
62928;BME280;51070;52.236;-0.892;2024-03-02T06:41:42;97974.42;;;3.57;100.00
62928;BME280;51070;52.236;-0.892;2024-03-02T06:44:12;97973.13;;;3.60;100.00
62928;BME280;51070;52.236;-0.892;2024-03-02T06:46:38;97975.59;;;3.65;100.00
62928;BME280;51070;52.236;-0.892;2024-03-02T06:49:04;97971.20;;;3.68;100.00
62928;BME280;51070;52.236;-0.892;2024-03-02T06:51:29;97967.17;;;3.72;100.00
62928;BME280;51070;52.236;-0.892;2024-03-02T06:53:55;97961.94;;;3.76;100.00
62928;BME280;51070;52.236;-0.892;2024-03-02T06:56:21;97965.25;;;3.81;100.00
62928;BME280;51070;52.236;-0.892;2024-03-02T06:58:46;97964.62;;;3.86;100.00
62928;BME280;51070;52.236;-0.892;2024-03-02T07:01:12;97964.88;;;3.91;100.00
62928;BME280;51070;52.236;-0.892;2024-03-02T07:03:38;97963.92;;;3.96;100.00
62928;BME280;51070;52.236;-0.892;2024-03-02T07:06:07;97963.80;;;3.99;100.00
62928;BME280;51070;52.236;-0.892;2024-03-02T07:08:32;97962.49;;;4.03;100.00
62928;BME280;51070;52.236;-0.892;2024-03-02T07:10:58;97963.56;;;4.07;100.00
62928;BME280;51070;52.236;-0.892;2024-03-02T07:13:24;97964.29;;;4.09;100.00
62928;BME280;51070;52.236;-0.892;2024-03-02T07:15:49;97966.54;;;4.12;100.00
62928;BME280;51070;52.236;-0.892;2024-03-02T07:18:17;97965.89;;;4.14;100.00
62928;BME280;51070;52.236;-0.892;2024-03-02T07:20:42;97964.09;;;4.19;100.00
62928;BME280;51070;52.236;-0.892;2024-03-02T07:23:08;97967.57;;;4.25;100.00
62928;BME280;51070;52.236;-0.892;2024-03-02T07:25:34;97967.48;;;4.30;100.00
62928;BME280;51070;52.236;-0.892;2024-03-02T07:28:00;97962.41;;;4.36;100.00
62928;BME280;51070;52.236;-0.892;2024-03-02T07:30:25;97963.85;;;4.42;100.00
62928;BME280;51070;52.236;-0.892;2024-03-02T07:32:50;97957.09;;;4.48;100.00
62928;BME280;51070;52.236;-0.892;2024-03-02T07:35:16;97958.89;;;4.56;100.00
62928;BME280;51070;52.236;-0.892;2024-03-02T07:37:42;97958.81;;;4.64;100.00
62928;BME280;51070;52.236;-0.892;2024-03-02T07:40:09;97960.59;;;4.69;100.00
62928;BME280;51070;52.236;-0.892;2024-03-02T07:42:36;97960.45;;;4.73;100.00
62928;BME280;51070;52.236;-0.892;2024-03-02T07:45:02;97955.36;;;4.75;100.00
62928;BME280;51070;52.236;-0.892;2024-03-02T07:47:28;97952.63;;;4.75;100.00
62928;BME280;51070;52.236;-0.892;2024-03-02T07:49:53;97949.54;;;4.75;100.00
62928;BME280;51070;52.236;-0.892;2024-03-02T07:52:19;97952.98;;;4.77;100.00
62928;BME280;51070;52.236;-0.892;2024-03-02T07:54:44;97957.30;;;4.80;100.00
62928;BME280;51070;52.236;-0.892;2024-03-02T07:57:10;97960.23;;;4.83;100.00
62928;BME280;51070;52.236;-0.892;2024-03-02T07:59:36;97965.05;;;4.86;100.00
62928;BME280;51070;52.236;-0.892;2024-03-02T08:02:02;97966.09;;;4.88;100.00
62928;BME280;51070;52.236;-0.892;2024-03-02T08:04:28;97970.04;;;4.88;100.00
62928;BME280;51070;52.236;-0.892;2024-03-02T08:06:53;97970.36;;;4.87;100.00
62928;BME280;51070;52.236;-0.892;2024-03-02T08:09:20;97967.98;;;4.88;100.00
62928;BME280;51070;52.236;-0.892;2024-03-02T08:11:45;97965.30;;;4.92;100.00
62928;BME280;51070;52.236;-0.892;2024-03-02T08:14:11;97971.21;;;5.02;100.00
62928;BME280;51070;52.236;-0.892;2024-03-02T08:16:36;97973.02;;;5.12;100.00
62928;BME280;51070;52.236;-0.892;2024-03-02T08:19:01;97972.95;;;5.22;100.00
62928;BME280;51070;52.236;-0.892;2024-03-02T08:21:28;97971.20;;;5.34;100.00
62928;BME280;51070;52.236;-0.892;2024-03-02T08:23:57;97970.61;;;5.46;100.00
62928;BME280;51070;52.236;-0.892;2024-03-02T08:26:23;97975.08;;;5.48;100.00
62928;BME280;51070;52.236;-0.892;2024-03-02T08:28:49;97975.03;;;5.43;100.00
62928;BME280;51070;52.236;-0.892;2024-03-02T08:31:14;97979.61;;;5.37;100.00
62928;BME280;51070;52.236;-0.892;2024-03-02T08:33:40;97983.19;;;5.36;100.00
62928;BME280;51070;52.236;-0.892;2024-03-02T08:36:06;97988.02;;;5.40;100.00
62928;BME280;51070;52.236;-0.892;2024-03-02T08:38:32;97986.04;;;5.49;100.00
62928;BME280;51070;52.236;-0.892;2024-03-02T08:40:58;97985.13;;;5.61;100.00
62928;BME280;51070;52.236;-0.892;2024-03-02T08:43:23;97991.50;;;5.67;100.00
62928;BME280;51070;52.236;-0.892;2024-03-02T08:45:50;97994.14;;;5.75;100.00
62928;BME280;51070;52.236;-0.892;2024-03-02T08:48:16;97997.23;;;5.95;100.00
62928;BME280;51070;52.236;-0.892;2024-03-02T08:50:41;97997.23;;;6.21;100.00
62928;BME280;51070;52.236;-0.892;2024-03-02T08:53:07;97993.88;;;6.35;100.00
62928;BME280;51070;52.236;-0.892;2024-03-02T08:55:32;98001.13;;;6.42;100.00
62928;BME280;51070;52.236;-0.892;2024-03-02T08:57:57;97995.86;;;6.50;100.00
62928;BME280;51070;52.236;-0.892;2024-03-02T09:00:23;97995.21;;;6.62;100.00
62928;BME280;51070;52.236;-0.892;2024-03-02T09:02:49;97995.95;;;6.71;100.00
62928;BME280;51070;52.236;-0.892;2024-03-02T09:05:15;97999.03;;;6.69;100.00
62928;BME280;51070;52.236;-0.892;2024-03-02T09:07:40;98005.70;;;6.65;100.00
62928;BME280;51070;52.236;-0.892;2024-03-02T09:10:07;98003.11;;;6.60;100.00
62928;BME280;51070;52.236;-0.892;2024-03-02T09:12:33;98005.30;;;6.54;100.00
62928;BME280;51070;52.236;-0.892;2024-03-02T09:15:00;98005.11;;;6.48;100.00
62928;BME280;51070;52.236;-0.892;2024-03-02T09:17:26;98005.26;;;6.45;100.00
62928;BME280;51070;52.236;-0.892;2024-03-02T09:19:51;98011.80;;;6.51;100.00
62928;BME280;51070;52.236;-0.892;2024-03-02T09:22:20;98007.31;;;6.82;100.00
62928;BME280;51070;52.236;-0.892;2024-03-02T09:24:45;98012.35;;;6.99;100.00
62928;BME280;51070;52.236;-0.892;2024-03-02T09:27:11;98018.86;;;6.97;100.00
62928;BME280;51070;52.236;-0.892;2024-03-02T09:29:37;98017.85;;;7.00;100.00
62928;BME280;51070;52.236;-0.892;2024-03-02T09:32:03;98018.04;;;7.03;100.00
62928;BME280;51070;52.236;-0.892;2024-03-02T09:34:29;98022.79;;;6.88;100.00
62928;BME280;51070;52.236;-0.892;2024-03-02T09:36:54;98029.25;;;6.72;100.00
62928;BME280;51070;52.236;-0.892;2024-03-02T09:39:20;98030.57;;;6.63;100.00
62928;BME280;51070;52.236;-0.892;2024-03-02T09:41:47;98031.27;;;6.63;100.00
62928;BME280;51070;52.236;-0.892;2024-03-02T09:44:13;98029.61;;;6.76;100.00
62928;BME280;51070;52.236;-0.892;2024-03-02T09:46:38;98034.45;;;6.84;100.00
62928;BME280;51070;52.236;-0.892;2024-03-02T09:49:04;98035.84;;;6.88;100.00
62928;BME280;51070;52.236;-0.892;2024-03-02T09:51:31;98034.27;;;6.86;100.00
62928;BME280;51070;52.236;-0.892;2024-03-02T09:53:56;98030.67;;;6.84;100.00
62928;BME280;51070;52.236;-0.892;2024-03-02T09:56:22;98030.48;;;6.82;100.00
62928;BME280;51070;52.236;-0.892;2024-03-02T09:58:48;98035.14;;;6.86;100.00
62928;BME280;51070;52.236;-0.892;2024-03-02T10:01:14;98035.50;;;6.91;100.00
62928;BME280;51070;52.236;-0.892;2024-03-02T10:03:40;98036.05;;;6.98;100.00
62928;BME280;51070;52.236;-0.892;2024-03-02T10:06:22;98041.06;;;7.09;100.00
62928;BME280;51070;52.236;-0.892;2024-03-02T10:08:47;98039.02;;;7.18;100.00
62928;BME280;51070;52.236;-0.892;2024-03-02T10:14:13;98037.72;;;7.37;99.90
62928;BME280;51070;52.236;-0.892;2024-03-02T10:16:44;98040.50;;;7.61;98.78
62928;BME280;51070;52.236;-0.892;2024-03-02T10:19:19;98044.61;;;7.62;97.00
62928;BME280;51070;52.236;-0.892;2024-03-02T10:21:54;98044.11;;;7.59;97.26
62928;BME280;51070;52.236;-0.892;2024-03-02T10:24:22;98042.55;;;7.51;93.90
62928;BME280;51070;52.236;-0.892;2024-03-02T10:26:48;98044.79;;;7.52;93.98
62928;BME280;51070;52.236;-0.892;2024-03-02T10:29:14;98049.79;;;7.68;94.61
62928;BME280;51070;52.236;-0.892;2024-03-02T10:31:42;98054.27;;;7.73;92.75
62928;BME280;51070;52.236;-0.892;2024-03-02T10:34:09;98054.41;;;7.61;91.64
62928;BME280;51070;52.236;-0.892;2024-03-02T10:36:36;98059.38;;;7.44;90.59
62928;BME280;51070;52.236;-0.892;2024-03-02T10:39:06;98062.77;;;7.27;90.73
62928;BME280;51070;52.236;-0.892;2024-03-02T10:41:37;98062.06;;;7.26;90.83
62928;BME280;51070;52.236;-0.892;2024-03-02T10:44:04;98068.08;;;7.20;90.21
62928;BME280;51070;52.236;-0.892;2024-03-02T10:46:31;98070.60;;;7.09;90.45
62928;BME280;51070;52.236;-0.892;2024-03-02T10:48:58;98071.43;;;7.03;91.22
62928;BME280;51070;52.236;-0.892;2024-03-02T10:51:28;98074.52;;;7.03;89.21
62928;BME280;51070;52.236;-0.892;2024-03-02T10:53:58;98077.75;;;6.94;87.54
62928;BME280;51070;52.236;-0.892;2024-03-02T10:56:30;98078.41;;;6.86;87.46
62928;BME280;51070;52.236;-0.892;2024-03-02T11:01:43;98087.78;;;6.74;86.98
62928;BME280;51070;52.236;-0.892;2024-03-02T11:04:12;98085.97;;;6.89;87.54
62928;BME280;51070;52.236;-0.892;2024-03-02T11:06:50;98084.55;;;7.20;86.79
62928;BME280;51070;52.236;-0.892;2024-03-02T11:09:19;98088.41;;;7.45;86.27
62928;BME280;51070;52.236;-0.892;2024-03-02T11:11:49;98089.10;;;7.45;85.92
62928;BME280;51070;52.236;-0.892;2024-03-02T11:14:22;98098.34;;;7.34;85.87
62928;BME280;51070;52.236;-0.892;2024-03-02T11:16:49;98100.36;;;7.22;85.85
62928;BME280;51070;52.236;-0.892;2024-03-02T11:19:16;98099.09;;;7.05;85.96
62928;BME280;51070;52.236;-0.892;2024-03-02T11:21:42;98103.34;;;6.94;87.79
62928;BME280;51070;52.236;-0.892;2024-03-02T11:26:52;98115.94;;;6.74;87.19
62928;BME280;51070;52.236;-0.892;2024-03-02T11:34:35;98111.89;;;6.90;86.93
62928;BME280;51070;52.236;-0.892;2024-03-02T11:37:02;98120.85;;;6.96;86.70
62928;BME280;51070;52.236;-0.892;2024-03-02T11:39:28;98115.39;;;7.00;86.42
62928;BME280;51070;52.236;-0.892;2024-03-02T11:41:57;98118.37;;;7.12;86.26
62928;BME280;51070;52.236;-0.892;2024-03-02T11:44:25;98116.52;;;7.27;83.89
62928;BME280;51070;52.236;-0.892;2024-03-02T11:47:02;98124.33;;;7.43;82.48
62928;BME280;51070;52.236;-0.892;2024-03-02T11:49:44;98122.79;;;7.48;80.03
62928;BME280;51070;52.236;-0.892;2024-03-02T11:52:12;98125.01;;;7.41;79.19
62928;BME280;51070;52.236;-0.892;2024-03-02T11:54:40;98129.42;;;7.27;78.65
62928;BME280;51070;52.236;-0.892;2024-03-02T11:57:06;98129.05;;;7.21;79.30
62928;BME280;51070;52.236;-0.892;2024-03-02T11:59:32;98128.89;;;7.26;79.91
62928;BME280;51070;52.236;-0.892;2024-03-02T12:01:59;98135.08;;;7.25;79.47
62928;BME280;51070;52.236;-0.892;2024-03-02T12:04:25;98127.87;;;7.30;78.62
62928;BME280;51070;52.236;-0.892;2024-03-02T12:07:10;98126.17;;;7.31;78.24
62928;BME280;51070;52.236;-0.892;2024-03-02T12:09:36;98125.30;;;7.28;78.98
62928;BME280;51070;52.236;-0.892;2024-03-02T12:12:09;98129.70;;;7.12;78.81
62928;BME280;51070;52.236;-0.892;2024-03-02T12:14:37;98131.68;;;6.98;79.15
62928;BME280;51070;52.236;-0.892;2024-03-02T12:17:04;98133.70;;;6.87;80.24
62928;BME280;51070;52.236;-0.892;2024-03-02T12:19:30;98136.70;;;6.77;79.71
62928;BME280;51070;52.236;-0.892;2024-03-02T12:21:59;98141.05;;;6.59;79.77
62928;BME280;51070;52.236;-0.892;2024-03-02T12:24:28;98144.33;;;6.59;80.20
62928;BME280;51070;52.236;-0.892;2024-03-02T12:26:54;98143.54;;;6.71;80.51
62928;BME280;51070;52.236;-0.892;2024-03-02T12:29:21;98143.09;;;6.79;81.03
62928;BME280;51070;52.236;-0.892;2024-03-02T12:31:50;98140.55;;;6.85;80.06
62928;BME280;51070;52.236;-0.892;2024-03-02T12:34:17;98141.58;;;6.85;79.97
62928;BME280;51070;52.236;-0.892;2024-03-02T12:36:43;98139.34;;;6.85;80.12
62928;BME280;51070;52.236;-0.892;2024-03-02T12:39:09;98136.42;;;6.84;80.03
62928;BME280;51070;52.236;-0.892;2024-03-02T12:41:37;98140.36;;;6.84;81.00
62928;BME280;51070;52.236;-0.892;2024-03-02T12:44:05;98143.95;;;6.82;81.03
62928;BME280;51070;52.236;-0.892;2024-03-02T12:46:32;98146.67;;;6.77;80.50
62928;BME280;51070;52.236;-0.892;2024-03-02T12:48:58;98144.91;;;6.71;81.23
62928;BME280;51070;52.236;-0.892;2024-03-02T12:51:27;98148.50;;;6.68;80.94
62928;BME280;51070;52.236;-0.892;2024-03-02T12:53:54;98150.20;;;6.63;80.18
62928;BME280;51070;52.236;-0.892;2024-03-02T12:56:20;98152.36;;;6.56;81.39
62928;BME280;51070;52.236;-0.892;2024-03-02T12:58:46;98157.29;;;6.48;81.57
62928;BME280;51070;52.236;-0.892;2024-03-02T13:01:14;98153.52;;;6.47;81.62
62928;BME280;51070;52.236;-0.892;2024-03-02T13:03:43;98159.49;;;6.46;81.21
62928;BME280;51070;52.236;-0.892;2024-03-02T13:06:09;98156.43;;;6.74;80.03
62928;BME280;51070;52.236;-0.892;2024-03-02T13:08:35;98152.23;;;6.89;78.54
62928;BME280;51070;52.236;-0.892;2024-03-02T13:11:01;98148.70;;;7.02;77.89
62928;BME280;51070;52.236;-0.892;2024-03-02T13:13:30;98150.33;;;7.15;76.64